createdAt,value
2023-05-22T00:02:12.383Z,10.40
2023-05-22T00:04:40.767Z,8.00
2023-05-22T00:07:09.158Z,9.53
2023-05-22T00:09:37.425Z,10.17
2023-05-22T00:12:06.275Z,8.90
2023-05-22T00:14:34.614Z,7.73
2023-05-22T00:17:03.499Z,9.40
2023-05-22T00:19:33.214Z,8.60
2023-05-22T00:22:01.554Z,9.77
2023-05-22T00:24:29.804Z,12.13
2023-05-22T00:26:58.084Z,8.73
2023-05-22T00:29:26.403Z,10.53
2023-05-22T00:31:54.733Z,10.57
2023-05-22T00:34:22.999Z,9.47
2023-05-22T00:36:52.719Z,10.30
2023-05-22T00:39:21.351Z,10.90
2023-05-22T00:41:49.678Z,11.23
2023-05-22T00:44:18.005Z,9.53
2023-05-22T00:46:47.796Z,12.27
2023-05-22T00:49:16.142Z,11.23
2023-05-22T00:51:44.589Z,11.47
2023-05-22T00:54:15.059Z,9.33
2023-05-22T00:56:44.072Z,8.87
2023-05-22T00:59:12.675Z,11.50
2023-05-22T01:01:42.856Z,10.10
2023-05-22T01:04:13.090Z,8.70
2023-05-22T01:06:41.551Z,10.93
2023-05-22T01:09:10.125Z,10.73
2023-05-22T01:11:49.182Z,13.07
2023-05-22T01:14:25.602Z,11.63
2023-05-22T01:16:59.790Z,9.90
2023-05-22T01:20:01.203Z,10.53
2023-05-22T01:22:46.205Z,10.30
2023-05-22T01:25:30.058Z,10.47
2023-05-22T01:28:20.037Z,12.50
2023-05-22T01:31:01.621Z,12.63
2023-05-22T01:33:34.502Z,12.07
2023-05-22T01:36:04.744Z,12.03
2023-05-22T01:38:34.698Z,11.87
2023-05-22T01:41:03.379Z,12.57
2023-05-22T01:43:31.809Z,12.47
2023-05-22T01:46:03.155Z,12.93
2023-05-22T01:48:31.476Z,13.93
2023-05-22T01:51:03.991Z,10.70
2023-05-22T01:53:36.552Z,9.53
2023-05-22T01:56:08.560Z,11.67
2023-05-22T01:58:44.811Z,11.80
2023-05-22T02:01:16.200Z,13.43
2023-05-22T02:03:47.140Z,13.93
2023-05-22T02:06:18.219Z,12.40
2023-05-22T02:08:46.823Z,13.13
2023-05-22T02:11:17.282Z,14.27
2023-05-22T02:13:45.705Z,10.50
2023-05-22T02:16:15.601Z,13.90
2023-05-22T02:18:44.526Z,15.47
2023-05-22T02:21:12.888Z,16.50
2023-05-22T02:23:41.447Z,13.97
2023-05-22T02:26:09.907Z,17.83
2023-05-22T02:28:38.174Z,13.30
2023-05-22T02:31:07.952Z,15.27
2023-05-22T02:33:37.644Z,13.93
2023-05-22T02:36:10.794Z,14.53
2023-05-22T02:38:39.175Z,15.03
2023-05-22T02:41:08.376Z,13.30
2023-05-22T02:43:36.690Z,16.43
2023-05-22T02:46:05.019Z,14.13
2023-05-22T02:48:33.405Z,13.83
2023-05-22T02:51:03.546Z,14.67
2023-05-22T02:53:33.579Z,15.93
2023-05-22T02:56:01.939Z,15.90
2023-05-22T02:58:30.564Z,16.63
2023-05-22T03:00:58.847Z,15.80
2023-05-22T03:03:29.501Z,13.00
2023-05-22T03:05:58.841Z,14.73
2023-05-22T03:08:29.228Z,16.30
2023-05-22T03:10:58.208Z,16.47
2023-05-22T03:13:26.647Z,15.50
2023-05-22T03:15:55.093Z,16.67
2023-05-22T03:18:25.938Z,17.37
2023-05-22T03:20:55.718Z,18.47
2023-05-22T03:23:25.164Z,17.27
2023-05-22T03:25:55.309Z,16.93
2023-05-22T03:28:27.244Z,14.47
2023-05-22T03:30:55.692Z,15.80
2023-05-22T03:33:28.276Z,16.53
2023-05-22T03:35:57.357Z,16.30
2023-05-22T03:38:26.314Z,19.43
2023-05-22T03:40:56.022Z,15.23
2023-05-22T03:43:25.579Z,17.40
2023-05-22T03:45:53.879Z,15.10
2023-05-22T03:48:22.362Z,15.23
2023-05-22T03:50:51.147Z,15.47
2023-05-22T03:53:19.475Z,15.97
2023-05-22T03:55:47.732Z,15.43
2023-05-22T03:58:17.443Z,15.57
2023-05-22T04:00:46.255Z,16.73
2023-05-22T04:03:14.609Z,18.50
2023-05-22T04:05:42.915Z,14.80
2023-05-22T04:08:11.873Z,14.63
2023-05-22T04:10:40.459Z,18.63
2023-05-22T04:13:08.837Z,16.90
2023-05-22T04:15:38.532Z,18.50
2023-05-22T04:18:06.892Z,18.97
2023-05-22T04:20:35.680Z,16.80
2023-05-22T04:23:03.997Z,16.33
2023-05-22T04:25:34.266Z,17.23
2023-05-22T04:28:03.929Z,17.50
2023-05-22T04:30:34.074Z,17.63
2023-05-22T04:33:05.460Z,15.97
2023-05-22T04:35:34.254Z,16.73
2023-05-22T04:38:03.633Z,18.80
2023-05-22T04:40:33.390Z,15.87
2023-05-22T04:43:01.948Z,15.87
2023-05-22T04:45:33.006Z,18.40
2023-05-22T04:48:02.770Z,16.87
2023-05-22T04:50:38.863Z,16.40
2023-05-22T04:53:07.697Z,16.50
2023-05-22T04:55:37.035Z,19.00
2023-05-22T04:58:05.889Z,16.30
2023-05-22T05:00:34.469Z,17.57
2023-05-22T05:03:03.223Z,16.23
2023-05-22T05:05:31.853Z,14.73
2023-05-22T05:08:01.932Z,17.77
2023-05-22T05:10:30.401Z,15.80
2023-05-22T05:12:58.751Z,16.53
2023-05-22T05:15:27.629Z,14.77
2023-05-22T05:17:56.437Z,16.07
2023-05-22T05:20:25.354Z,15.37
2023-05-22T05:22:53.677Z,14.93
2023-05-22T05:25:23.665Z,14.33
2023-05-22T05:27:52.051Z,15.67
2023-05-22T05:30:22.242Z,16.33
2023-05-22T05:33:10.426Z,15.27
2023-05-22T05:35:58.170Z,14.80
2023-05-22T05:38:26.925Z,14.73
2023-05-22T05:40:57.883Z,15.57
2023-05-22T05:43:27.108Z,11.80
2023-05-22T05:46:53.820Z,14.10
2023-05-22T05:49:54.528Z,14.83
2023-05-22T05:52:55.002Z,13.17
2023-05-22T05:59:28.706Z,12.43
2023-05-22T06:02:44.595Z,14.37
2023-05-22T06:05:44.060Z,16.07
2023-05-22T06:15:14.970Z,13.30
2023-05-22T06:17:50.878Z,12.03
2023-05-22T06:20:28.667Z,13.73
2023-05-22T06:23:16.233Z,10.27
2023-05-22T06:29:05.943Z,14.43
2023-05-22T06:29:44.487Z,11.73
2023-05-22T06:33:56.737Z,11.60
2023-05-22T06:38:06.070Z,9.73
2023-05-22T06:52:22.996Z,11.17
2023-05-22T09:22:41.029Z,10.33
2023-05-22T09:26:11.650Z,8.80
2023-05-22T09:30:00.413Z,8.87
2023-05-22T10:09:35.553Z,8.30
2023-05-22T10:17:54.998Z,9.43
2023-05-22T10:25:40.156Z,8.67
2023-05-22T10:38:02.199Z,9.43
2023-05-22T10:54:58.219Z,8.15
2023-05-22T11:20:27.299Z,5.03
2023-05-22T11:29:22.469Z,5.82
2023-05-22T11:54:14.703Z,4.93
2023-05-22T11:57:58.798Z,7.77
2023-05-22T12:00:32.153Z,6.60
2023-05-22T12:37:04.273Z,8.00
2023-05-22T12:37:41.539Z,6.47
2023-05-22T12:44:46.737Z,6.73
2023-05-22T12:50:16.881Z,7.97
2023-05-22T12:54:00.238Z,8.60
2023-05-22T13:37:12.913Z,9.20
2023-05-22T13:40:02.792Z,9.43
2023-05-22T13:42:41.290Z,8.73
2023-05-22T13:45:13.694Z,8.53
2023-05-22T13:47:56.661Z,9.23
2023-05-22T13:50:41.147Z,8.03
2023-05-22T13:53:38.243Z,10.20
2023-05-22T13:56:18.952Z,7.83
2023-05-22T13:59:34.498Z,8.70
2023-05-22T14:02:07.398Z,8.77
2023-05-22T14:04:48.599Z,7.90
2023-05-22T14:07:34.708Z,7.10
2023-05-22T14:10:05.342Z,7.40
2023-05-22T14:12:46.445Z,8.83
2023-05-22T14:15:18.599Z,9.73
2023-05-22T14:18:21.828Z,9.33
2023-05-22T14:21:15.641Z,9.27
2023-05-22T14:23:49.095Z,8.87
2023-05-22T14:26:24.356Z,7.00
2023-05-22T14:28:54.032Z,6.87
2023-05-22T14:31:24.634Z,10.03
2023-05-22T14:33:59.293Z,7.23
2023-05-22T14:36:31.407Z,7.67
2023-05-22T14:39:01.777Z,7.73
2023-05-22T14:41:37.329Z,9.17
2023-05-22T14:44:07.553Z,10.07
2023-05-22T14:46:36.585Z,8.53
2023-05-22T14:49:07.738Z,9.60
2023-05-22T14:57:17.057Z,8.97
2023-05-22T15:00:01.910Z,9.30
2023-05-22T15:02:42.082Z,8.00
2023-05-22T15:51:21.211Z,9.73
2023-05-22T19:33:25.731Z,17.43
2023-05-22T19:35:55.735Z,16.60
2023-05-22T19:38:24.504Z,19.63
2023-05-22T19:40:55.784Z,16.23
2023-05-22T19:43:26.959Z,15.90
2023-05-22T19:45:55.745Z,17.13
2023-05-22T19:48:29.503Z,14.17
2023-05-22T19:51:00.076Z,17.13
2023-05-22T19:53:29.091Z,16.27
2023-05-22T19:56:54.829Z,16.27
2023-05-22T19:59:23.569Z,16.60
2023-05-22T20:02:11.073Z,15.90
2023-05-22T20:04:43.000Z,16.60
2023-05-22T20:07:13.585Z,16.40
2023-05-22T20:09:42.099Z,15.07
2023-05-22T20:12:10.866Z,17.63
2023-05-22T20:14:39.492Z,14.27
2023-05-22T20:17:10.516Z,15.87
2023-05-22T20:19:39.169Z,15.50
2023-05-22T20:23:06.625Z,14.77
2023-05-22T20:25:37.749Z,15.10
2023-05-22T20:28:12.078Z,14.43
2023-05-22T20:30:40.903Z,14.03
2023-05-22T20:33:09.615Z,13.97
2023-05-22T20:35:38.455Z,15.83
2023-05-22T20:38:08.772Z,13.43
2023-05-22T20:40:46.609Z,13.73
2023-05-22T20:43:16.036Z,16.10
2023-05-22T20:45:45.990Z,14.97
2023-05-22T20:49:08.954Z,14.13
2023-05-22T20:51:37.690Z,14.10
2023-05-22T20:54:09.335Z,12.67
2023-05-22T20:56:39.434Z,13.37
2023-05-22T20:59:10.644Z,15.33
2023-05-22T21:01:39.960Z,12.33
2023-05-22T21:04:08.535Z,13.43
2023-05-22T21:06:37.176Z,14.23
2023-05-22T21:09:05.622Z,14.73
2023-05-22T21:11:34.067Z,14.53
2023-05-22T21:14:03.833Z,14.30
2023-05-22T21:16:32.248Z,14.50
2023-05-22T21:19:00.786Z,13.13
2023-05-22T21:21:29.298Z,13.50
2023-05-22T21:23:57.669Z,13.90
2023-05-22T21:26:26.069Z,13.63
2023-05-22T21:28:54.665Z,14.53
2023-05-22T21:31:24.402Z,13.50
2023-05-22T21:33:52.770Z,15.13
2023-05-22T21:36:22.403Z,12.40
2023-05-22T21:38:50.723Z,13.63
2023-05-22T21:41:19.013Z,13.60
2023-05-22T21:43:47.895Z,12.90
2023-05-22T21:46:16.167Z,14.77
2023-05-22T21:48:46.172Z,14.67
2023-05-22T21:51:14.827Z,13.57
2023-05-22T21:53:43.193Z,14.33
2023-05-22T21:56:11.468Z,13.30
2023-05-22T21:58:39.706Z,14.07
2023-05-22T22:01:08.008Z,12.87
2023-05-22T22:03:38.702Z,12.93
2023-05-22T22:06:08.972Z,13.03
2023-05-22T22:08:37.333Z,12.33
2023-05-22T22:11:06.600Z,13.60
2023-05-22T22:13:34.967Z,13.10
2023-05-22T22:16:03.293Z,12.03
2023-05-22T22:18:33.440Z,11.03
2023-05-22T22:21:02.326Z,12.43
2023-05-22T22:23:32.107Z,13.87
2023-05-22T22:26:00.417Z,13.40
2023-05-22T22:28:29.154Z,12.27
2023-05-22T22:30:57.406Z,11.63
2023-05-22T22:33:25.732Z,14.23
2023-05-22T22:35:54.186Z,12.37
2023-05-22T22:38:22.429Z,12.27
2023-05-22T22:40:52.090Z,12.77
2023-05-22T22:43:20.383Z,12.03
2023-05-22T22:45:48.706Z,11.57
2023-05-22T22:48:17.569Z,12.00
2023-05-22T22:50:46.787Z,12.70
2023-05-22T22:53:14.999Z,13.20
2023-05-22T22:55:43.546Z,12.70
2023-05-22T22:58:13.397Z,11.67
2023-05-22T23:00:41.835Z,14.63
2023-05-22T23:03:10.177Z,14.80
2023-05-22T23:05:38.779Z,14.13
2023-05-22T23:08:07.250Z,12.60
2023-05-22T23:10:35.538Z,14.33
2023-05-22T23:13:03.878Z,13.00
2023-05-22T23:15:34.249Z,14.67
2023-05-22T23:18:02.698Z,13.40
2023-05-22T23:20:31.056Z,13.13
2023-05-22T23:22:59.343Z,13.30
2023-05-22T23:25:27.600Z,12.93
2023-05-22T23:27:55.871Z,12.33
2023-05-22T23:30:24.183Z,12.40
2023-05-22T23:32:53.925Z,11.40
2023-05-22T23:35:22.367Z,13.80
2023-05-22T23:37:50.678Z,14.40
2023-05-22T23:40:19.038Z,14.20
2023-05-22T23:42:47.337Z,11.70
2023-05-22T23:45:15.626Z,13.50
2023-05-22T23:47:43.902Z,13.23
2023-05-22T23:50:13.748Z,11.93
2023-05-22T23:52:42.116Z,15.67
2023-05-22T23:55:10.791Z,12.57
2023-05-22T23:57:39.149Z,10.60
